sensor_id;sensor_type;location;lat;lon;timestamp;P1;durP1;ratioP1;P2;durP2;ratioP2
55545;SDS011;44768;50.298;127.520;2022-07-06T00:02:30;36.88;;;32.85;;
55545;SDS011;44768;50.298;127.520;2022-07-06T00:07:32;42.90;;;35.25;;
55545;SDS011;44768;50.298;127.520;2022-07-06T00:12:33;37.67;;;33.25;;
55545;SDS011;44768;50.298;127.520;2022-07-06T00:17:35;40.50;;;29.77;;
55545;SDS011;44768;50.298;127.520;2022-07-06T00:22:36;36.40;;;30.20;;
55545;SDS011;44768;50.298;127.520;2022-07-06T00:27:38;41.28;;;31.42;;
55545;SDS011;44768;50.298;127.520;2022-07-06T00:32:39;34.45;;;30.42;;
55545;SDS011;44768;50.298;127.520;2022-07-06T00:37:41;36.78;;;28.90;;
55545;SDS011;44768;50.298;127.520;2022-07-06T00:42:47;31.35;;;27.42;;
55545;SDS011;44768;50.298;127.520;2022-07-06T00:47:49;33.78;;;28.15;;
55545;SDS011;44768;50.298;127.520;2022-07-06T00:52:52;30.50;;;25.75;;
55545;SDS011;44768;50.298;127.520;2022-07-06T00:58:03;26.23;;;23.53;;
55545;SDS011;44768;50.298;127.520;2022-07-06T01:03:05;32.92;;;27.85;;
55545;SDS011;44768;50.298;127.520;2022-07-06T01:08:06;32.08;;;25.33;;
55545;SDS011;44768;50.298;127.520;2022-07-06T01:13:08;38.70;;;34.47;;
55545;SDS011;44768;50.298;127.520;2022-07-06T01:18:10;35.30;;;31.75;;
55545;SDS011;44768;50.298;127.520;2022-07-06T01:23:13;32.58;;;25.63;;
55545;SDS011;44768;50.298;127.520;2022-07-06T01:28:14;26.63;;;24.00;;
55545;SDS011;44768;50.298;127.520;2022-07-06T01:33:16;29.13;;;25.27;;
55545;SDS011;44768;50.298;127.520;2022-07-06T01:38:18;30.45;;;26.42;;
55545;SDS011;44768;50.298;127.520;2022-07-06T01:43:20;31.88;;;28.25;;
55545;SDS011;44768;50.298;127.520;2022-07-06T01:48:21;28.50;;;25.50;;
55545;SDS011;44768;50.298;127.520;2022-07-06T01:53:23;28.35;;;24.13;;
55545;SDS011;44768;50.298;127.520;2022-07-06T01:58:25;27.17;;;24.42;;
55545;SDS011;44768;50.298;127.520;2022-07-06T02:03:26;34.75;;;31.65;;
55545;SDS011;44768;50.298;127.520;2022-07-06T02:08:28;34.15;;;23.98;;
55545;SDS011;44768;50.298;127.520;2022-07-06T02:13:30;31.00;;;22.08;;
55545;SDS011;44768;50.298;127.520;2022-07-06T02:18:52;26.00;;;23.33;;
55545;SDS011;44768;50.298;127.520;2022-07-06T02:23:53;28.60;;;23.98;;
55545;SDS011;44768;50.298;127.520;2022-07-06T02:28:55;27.20;;;24.08;;
55545;SDS011;44768;50.298;127.520;2022-07-06T02:33:56;40.33;;;36.10;;
55545;SDS011;44768;50.298;127.520;2022-07-06T02:38:57;48.80;;;30.38;;
55545;SDS011;44768;50.298;127.520;2022-07-06T02:43:59;32.10;;;28.75;;
55545;SDS011;44768;50.298;127.520;2022-07-06T02:49:01;23.33;;;20.27;;
55545;SDS011;44768;50.298;127.520;2022-07-06T02:54:03;30.48;;;24.90;;
55545;SDS011;44768;50.298;127.520;2022-07-06T02:59:05;26.30;;;18.80;;
55545;SDS011;44768;50.298;127.520;2022-07-06T03:04:06;26.08;;;19.98;;
55545;SDS011;44768;50.298;127.520;2022-07-06T03:09:08;23.38;;;20.42;;
55545;SDS011;44768;50.298;127.520;2022-07-06T03:14:12;26.38;;;20.65;;
55545;SDS011;44768;50.298;127.520;2022-07-06T03:19:14;22.98;;;20.45;;
55545;SDS011;44768;50.298;127.520;2022-07-06T03:24:15;21.55;;;18.83;;
55545;SDS011;44768;50.298;127.520;2022-07-06T03:29:17;19.63;;;17.65;;
55545;SDS011;44768;50.298;127.520;2022-07-06T03:34:18;20.35;;;18.35;;
55545;SDS011;44768;50.298;127.520;2022-07-06T03:39:20;23.10;;;20.85;;
55545;SDS011;44768;50.298;127.520;2022-07-06T03:44:22;20.13;;;16.10;;
55545;SDS011;44768;50.298;127.520;2022-07-06T03:49:24;20.27;;;18.38;;
55545;SDS011;44768;50.298;127.520;2022-07-06T03:54:28;18.60;;;16.60;;
55545;SDS011;44768;50.298;127.520;2022-07-06T03:59:29;20.02;;;18.00;;
55545;SDS011;44768;50.298;127.520;2022-07-06T04:04:31;19.60;;;17.15;;
55545;SDS011;44768;50.298;127.520;2022-07-06T04:09:34;22.42;;;15.70;;
55545;SDS011;44768;50.298;127.520;2022-07-06T04:14:36;21.30;;;17.33;;
55545;SDS011;44768;50.298;127.520;2022-07-06T04:19:37;38.10;;;14.30;;
55545;SDS011;44768;50.298;127.520;2022-07-06T04:24:39;20.65;;;15.75;;
55545;SDS011;44768;50.298;127.520;2022-07-06T04:29:40;22.02;;;17.05;;
55545;SDS011;44768;50.298;127.520;2022-07-06T04:34:42;22.48;;;14.45;;
55545;SDS011;44768;50.298;127.520;2022-07-06T04:39:44;20.42;;;15.27;;
55545;SDS011;44768;50.298;127.520;2022-07-06T04:50:12;17.52;;;15.88;;
55545;SDS011;44768;50.298;127.520;2022-07-06T04:55:14;20.83;;;16.13;;
55545;SDS011;44768;50.298;127.520;2022-07-06T05:00:16;25.52;;;15.88;;
55545;SDS011;44768;50.298;127.520;2022-07-06T05:05:17;27.80;;;22.15;;
55545;SDS011;44768;50.298;127.520;2022-07-06T05:10:19;24.92;;;22.42;;
55545;SDS011;44768;50.298;127.520;2022-07-06T05:15:20;36.22;;;32.80;;
55545;SDS011;44768;50.298;127.520;2022-07-06T05:20:22;31.33;;;28.30;;
55545;SDS011;44768;50.298;127.520;2022-07-06T05:25:23;42.58;;;27.95;;
55545;SDS011;44768;50.298;127.520;2022-07-06T05:30:25;28.65;;;25.58;;
55545;SDS011;44768;50.298;127.520;2022-07-06T05:35:28;35.42;;;30.33;;
55545;SDS011;44768;50.298;127.520;2022-07-06T05:40:30;29.65;;;21.48;;
55545;SDS011;44768;50.298;127.520;2022-07-06T05:45:32;69.75;;;63.40;;
55545;SDS011;44768;50.298;127.520;2022-07-06T05:50:33;53.80;;;48.80;;
55545;SDS011;44768;50.298;127.520;2022-07-06T05:55:35;58.53;;;53.47;;
55545;SDS011;44768;50.298;127.520;2022-07-06T06:00:37;90.80;;;82.93;;
55545;SDS011;44768;50.298;127.520;2022-07-06T06:05:38;62.65;;;57.15;;
55545;SDS011;44768;50.298;127.520;2022-07-06T06:10:40;60.00;;;54.85;;
55545;SDS011;44768;50.298;127.520;2022-07-06T06:15:41;72.70;;;65.47;;
55545;SDS011;44768;50.298;127.520;2022-07-06T06:20:43;77.90;;;71.13;;
55545;SDS011;44768;50.298;127.520;2022-07-06T06:25:45;65.90;;;59.85;;
55545;SDS011;44768;50.298;127.520;2022-07-06T06:30:46;62.05;;;56.42;;
55545;SDS011;44768;50.298;127.520;2022-07-06T06:35:51;64.50;;;58.20;;
55545;SDS011;44768;50.298;127.520;2022-07-06T06:40:55;62.30;;;56.13;;
55545;SDS011;44768;50.298;127.520;2022-07-06T06:45:58;37.83;;;30.38;;
55545;SDS011;44768;50.298;127.520;2022-07-06T06:51:00;34.30;;;30.65;;
55545;SDS011;44768;50.298;127.520;2022-07-06T06:56:02;71.28;;;64.65;;
55545;SDS011;44768;50.298;127.520;2022-07-06T07:01:04;102.05;;;51.80;;
55545;SDS011;44768;50.298;127.520;2022-07-06T07:06:05;71.32;;;22.23;;
55545;SDS011;44768;50.298;127.520;2022-07-06T07:11:07;26.80;;;19.77;;
55545;SDS011;44768;50.298;127.520;2022-07-06T07:16:09;29.27;;;17.50;;
55545;SDS011;44768;50.298;127.520;2022-07-06T07:21:11;21.70;;;19.23;;
55545;SDS011;44768;50.298;127.520;2022-07-06T07:26:12;26.50;;;22.42;;
55545;SDS011;44768;50.298;127.520;2022-07-06T07:31:14;29.27;;;26.67;;
55545;SDS011;44768;50.298;127.520;2022-07-06T07:36:15;23.27;;;21.00;;
55545;SDS011;44768;50.298;127.520;2022-07-06T07:41:17;28.20;;;25.05;;
55545;SDS011;44768;50.298;127.520;2022-07-06T07:46:19;29.05;;;26.17;;
55545;SDS011;44768;50.298;127.520;2022-07-06T07:51:20;28.35;;;25.50;;
55545;SDS011;44768;50.298;127.520;2022-07-06T07:56:23;29.85;;;27.17;;
55545;SDS011;44768;50.298;127.520;2022-07-06T08:01:24;37.80;;;34.55;;
55545;SDS011;44768;50.298;127.520;2022-07-06T08:06:26;50.17;;;45.70;;
55545;SDS011;44768;50.298;127.520;2022-07-06T08:11:27;48.40;;;44.42;;
55545;SDS011;44768;50.298;127.520;2022-07-06T08:16:29;46.78;;;42.75;;
55545;SDS011;44768;50.298;127.520;2022-07-06T08:21:31;52.28;;;47.88;;
55545;SDS011;44768;50.298;127.520;2022-07-06T08:26:32;53.15;;;48.33;;
55545;SDS011;44768;50.298;127.520;2022-07-06T08:31:34;38.08;;;34.22;;
55545;SDS011;44768;50.298;127.520;2022-07-06T08:36:36;48.92;;;44.42;;
55545;SDS011;44768;50.298;127.520;2022-07-06T08:41:38;43.20;;;39.25;;
55545;SDS011;44768;50.298;127.520;2022-07-06T08:46:44;42.10;;;38.35;;
55545;SDS011;44768;50.298;127.520;2022-07-06T08:51:46;40.97;;;37.50;;
55545;SDS011;44768;50.298;127.520;2022-07-06T08:56:49;45.00;;;40.78;;
55545;SDS011;44768;50.298;127.520;2022-07-06T09:01:51;34.67;;;26.52;;
55545;SDS011;44768;50.298;127.520;2022-07-06T09:06:53;24.92;;;20.05;;
55545;SDS011;44768;50.298;127.520;2022-07-06T09:11:55;27.30;;;18.50;;
55545;SDS011;44768;50.298;127.520;2022-07-06T09:17:01;23.30;;;14.40;;
55545;SDS011;44768;50.298;127.520;2022-07-06T09:22:05;16.83;;;11.32;;
55545;SDS011;44768;50.298;127.520;2022-07-06T09:27:06;19.23;;;14.10;;
55545;SDS011;44768;50.298;127.520;2022-07-06T09:32:19;13.77;;;10.18;;
55545;SDS011;44768;50.298;127.520;2022-07-06T09:37:22;24.77;;;11.18;;
55545;SDS011;44768;50.298;127.520;2022-07-06T09:42:27;26.65;;;12.63;;
55545;SDS011;44768;50.298;127.520;2022-07-06T09:47:30;16.42;;;9.35;;
55545;SDS011;44768;50.298;127.520;2022-07-06T09:52:36;13.60;;;9.00;;
55545;SDS011;44768;50.298;127.520;2022-07-06T09:57:39;14.00;;;8.40;;
55545;SDS011;44768;50.298;127.520;2022-07-06T10:02:52;19.55;;;8.88;;
55545;SDS011;44768;50.298;127.520;2022-07-06T10:07:56;22.38;;;11.18;;
55545;SDS011;44768;50.298;127.520;2022-07-06T10:12:59;24.95;;;9.80;;
55545;SDS011;44768;50.298;127.520;2022-07-06T10:18:03;17.73;;;9.48;;
55545;SDS011;44768;50.298;127.520;2022-07-06T10:23:07;17.48;;;8.65;;
55545;SDS011;44768;50.298;127.520;2022-07-06T10:28:10;13.10;;;8.95;;
55545;SDS011;44768;50.298;127.520;2022-07-06T10:33:15;16.60;;;9.82;;
55545;SDS011;44768;50.298;127.520;2022-07-06T10:38:18;13.30;;;9.50;;
55545;SDS011;44768;50.298;127.520;2022-07-06T10:43:20;15.75;;;9.90;;
55545;SDS011;44768;50.298;127.520;2022-07-06T10:48:22;16.45;;;9.85;;
55545;SDS011;44768;50.298;127.520;2022-07-06T10:53:24;28.75;;;10.13;;
55545;SDS011;44768;50.298;127.520;2022-07-06T10:58:35;20.27;;;11.48;;
55545;SDS011;44768;50.298;127.520;2022-07-06T11:03:48;20.55;;;10.27;;
55545;SDS011;44768;50.298;127.520;2022-07-06T11:08:57;17.52;;;10.40;;
55545;SDS011;44768;50.298;127.520;2022-07-06T11:14:07;19.80;;;12.10;;
55545;SDS011;44768;50.298;127.520;2022-07-06T11:19:15;30.75;;;11.68;;
55545;SDS011;44768;50.298;127.520;2022-07-06T11:24:20;22.02;;;10.63;;
55545;SDS011;44768;50.298;127.520;2022-07-06T11:29:26;16.60;;;9.98;;
55545;SDS011;44768;50.298;127.520;2022-07-06T11:34:36;15.23;;;8.73;;
55545;SDS011;44768;50.298;127.520;2022-07-06T11:39:43;12.52;;;8.13;;
55545;SDS011;44768;50.298;127.520;2022-07-06T11:44:47;21.88;;;8.98;;
55545;SDS011;44768;50.298;127.520;2022-07-06T11:49:51;14.63;;;8.30;;
55545;SDS011;44768;50.298;127.520;2022-07-06T11:55:02;9.82;;;8.80;;
55545;SDS011;44768;50.298;127.520;2022-07-06T12:00:05;12.95;;;8.23;;
55545;SDS011;44768;50.298;127.520;2022-07-06T12:05:07;13.77;;;8.02;;
55545;SDS011;44768;50.298;127.520;2022-07-06T12:10:08;16.77;;;8.18;;
55545;SDS011;44768;50.298;127.520;2022-07-06T12:15:11;17.02;;;7.72;;
55545;SDS011;44768;50.298;127.520;2022-07-06T12:20:14;10.18;;;6.70;;
55545;SDS011;44768;50.298;127.520;2022-07-06T12:25:32;16.80;;;6.55;;
55545;SDS011;44768;50.298;127.520;2022-07-06T12:30:34;8.25;;;5.85;;
55545;SDS011;44768;50.298;127.520;2022-07-06T12:35:46;10.43;;;5.72;;
55545;SDS011;44768;50.298;127.520;2022-07-06T12:40:48;7.65;;;5.50;;
55545;SDS011;44768;50.298;127.520;2022-07-06T12:45:50;10.43;;;7.18;;
55545;SDS011;44768;50.298;127.520;2022-07-06T12:50:52;6.20;;;4.85;;
55545;SDS011;44768;50.298;127.520;2022-07-06T12:56:13;9.00;;;4.78;;
55545;SDS011;44768;50.298;127.520;2022-07-06T13:01:16;7.95;;;4.70;;
55545;SDS011;44768;50.298;127.520;2022-07-06T13:06:26;8.18;;;4.68;;
55545;SDS011;44768;50.298;127.520;2022-07-06T13:11:30;7.45;;;5.00;;
55545;SDS011;44768;50.298;127.520;2022-07-06T13:16:32;8.40;;;5.50;;
55545;SDS011;44768;50.298;127.520;2022-07-06T13:21:35;14.05;;;5.97;;
55545;SDS011;44768;50.298;127.520;2022-07-06T13:26:37;11.13;;;6.65;;
55545;SDS011;44768;50.298;127.520;2022-07-06T13:31:38;13.93;;;6.68;;
55545;SDS011;44768;50.298;127.520;2022-07-06T13:36:40;11.13;;;7.05;;
55545;SDS011;44768;50.298;127.520;2022-07-06T13:41:42;11.68;;;7.10;;
55545;SDS011;44768;50.298;127.520;2022-07-06T13:46:44;11.85;;;7.78;;
55545;SDS011;44768;50.298;127.520;2022-07-06T13:51:46;14.55;;;8.25;;
55545;SDS011;44768;50.298;127.520;2022-07-06T13:56:48;14.68;;;8.52;;
55545;SDS011;44768;50.298;127.520;2022-07-06T14:01:50;14.45;;;9.10;;
55545;SDS011;44768;50.298;127.520;2022-07-06T14:06:51;15.30;;;8.93;;
55545;SDS011;44768;50.298;127.520;2022-07-06T14:11:53;13.73;;;8.80;;
55545;SDS011;44768;50.298;127.520;2022-07-06T14:16:55;15.60;;;9.48;;
55545;SDS011;44768;50.298;127.520;2022-07-06T14:21:56;14.77;;;9.75;;
55545;SDS011;44768;50.298;127.520;2022-07-06T14:26:58;16.75;;;10.45;;
55545;SDS011;44768;50.298;127.520;2022-07-06T14:32:00;16.42;;;10.93;;
55545;SDS011;44768;50.298;127.520;2022-07-06T14:37:01;20.95;;;10.75;;
55545;SDS011;44768;50.298;127.520;2022-07-06T14:42:03;14.95;;;10.88;;
55545;SDS011;44768;50.298;127.520;2022-07-06T14:47:05;20.27;;;12.23;;
55545;SDS011;44768;50.298;127.520;2022-07-06T14:52:07;15.30;;;10.68;;
55545;SDS011;44768;50.298;127.520;2022-07-06T14:57:10;15.77;;;10.95;;
55545;SDS011;44768;50.298;127.520;2022-07-06T15:02:13;17.95;;;11.25;;
55545;SDS011;44768;50.298;127.520;2022-07-06T15:07:15;13.80;;;10.73;;
55545;SDS011;44768;50.298;127.520;2022-07-06T15:12:17;13.52;;;10.55;;
55545;SDS011;44768;50.298;127.520;2022-07-06T15:17:19;16.58;;;10.60;;
55545;SDS011;44768;50.298;127.520;2022-07-06T15:22:20;15.32;;;11.05;;
55545;SDS011;44768;50.298;127.520;2022-07-06T15:27:22;16.15;;;11.18;;
55545;SDS011;44768;50.298;127.520;2022-07-06T15:32:24;13.77;;;10.45;;
55545;SDS011;44768;50.298;127.520;2022-07-06T15:37:28;22.77;;;10.90;;
55545;SDS011;44768;50.298;127.520;2022-07-06T15:42:35;19.02;;;11.82;;
55545;SDS011;44768;50.298;127.520;2022-07-06T15:47:36;16.70;;;11.40;;
55545;SDS011;44768;50.298;127.520;2022-07-06T15:52:40;23.92;;;11.25;;
55545;SDS011;44768;50.298;127.520;2022-07-06T15:57:41;16.10;;;11.15;;
55545;SDS011;44768;50.298;127.520;2022-07-06T16:02:44;14.82;;;11.57;;
55545;SDS011;44768;50.298;127.520;2022-07-06T16:07:45;24.88;;;11.60;;
55545;SDS011;44768;50.298;127.520;2022-07-06T16:12:47;17.48;;;12.75;;
55545;SDS011;44768;50.298;127.520;2022-07-06T16:17:49;19.27;;;13.05;;
55545;SDS011;44768;50.298;127.520;2022-07-06T16:22:52;20.17;;;13.80;;
55545;SDS011;44768;50.298;127.520;2022-07-06T16:27:54;21.33;;;13.20;;
55545;SDS011;44768;50.298;127.520;2022-07-06T16:32:55;18.15;;;13.95;;
55545;SDS011;44768;50.298;127.520;2022-07-06T16:37:57;14.68;;;12.82;;
55545;SDS011;44768;50.298;127.520;2022-07-06T16:42:59;20.42;;;14.38;;
55545;SDS011;44768;50.298;127.520;2022-07-06T16:48:00;20.38;;;13.60;;
55545;SDS011;44768;50.298;127.520;2022-07-06T16:53:02;17.58;;;13.30;;
55545;SDS011;44768;50.298;127.520;2022-07-06T16:58:04;18.60;;;13.20;;
55545;SDS011;44768;50.298;127.520;2022-07-06T17:03:06;18.05;;;13.63;;
55545;SDS011;44768;50.298;127.520;2022-07-06T17:08:08;21.88;;;13.80;;
55545;SDS011;44768;50.298;127.520;2022-07-06T17:13:10;17.75;;;12.90;;
55545;SDS011;44768;50.298;127.520;2022-07-06T17:18:11;19.50;;;13.65;;
55545;SDS011;44768;50.298;127.520;2022-07-06T17:23:13;19.85;;;13.68;;
55545;SDS011;44768;50.298;127.520;2022-07-06T17:28:15;20.92;;;13.32;;
55545;SDS011;44768;50.298;127.520;2022-07-06T17:33:17;17.33;;;12.82;;
55545;SDS011;44768;50.298;127.520;2022-07-06T17:38:18;16.25;;;13.15;;
55545;SDS011;44768;50.298;127.520;2022-07-06T17:43:20;16.15;;;12.52;;
55545;SDS011;44768;50.298;127.520;2022-07-06T17:48:21;17.25;;;12.65;;
55545;SDS011;44768;50.298;127.520;2022-07-06T17:53:25;17.95;;;13.65;;
55545;SDS011;44768;50.298;127.520;2022-07-06T17:58:26;20.33;;;13.57;;
55545;SDS011;44768;50.298;127.520;2022-07-06T18:03:28;16.77;;;13.88;;
55545;SDS011;44768;50.298;127.520;2022-07-06T18:08:30;17.85;;;13.82;;
55545;SDS011;44768;50.298;127.520;2022-07-06T18:13:32;21.73;;;14.13;;
55545;SDS011;44768;50.298;127.520;2022-07-06T18:18:35;19.77;;;4.30;;
55545;SDS011;44768;50.298;127.520;2022-07-06T18:23:37;11.25;;;1.80;;
55545;SDS011;44768;50.298;127.520;2022-07-06T18:28:39;6.57;;;1.52;;
55545;SDS011;44768;50.298;127.520;2022-07-06T18:33:48;7.43;;;1.40;;
55545;SDS011;44768;50.298;127.520;2022-07-06T18:38:50;6.47;;;1.40;;
55545;SDS011;44768;50.298;127.520;2022-07-06T18:43:52;6.00;;;1.60;;
55545;SDS011;44768;50.298;127.520;2022-07-06T18:48:53;4.63;;;1.48;;
55545;SDS011;44768;50.298;127.520;2022-07-06T18:53:55;5.05;;;1.60;;
55545;SDS011;44768;50.298;127.520;2022-07-06T18:58:57;10.30;;;1.60;;
55545;SDS011;44768;50.298;127.520;2022-07-06T19:03:59;6.32;;;1.60;;
55545;SDS011;44768;50.298;127.520;2022-07-06T19:09:01;7.78;;;1.50;;
55545;SDS011;44768;50.298;127.520;2022-07-06T19:14:02;9.55;;;2.15;;
55545;SDS011;44768;50.298;127.520;2022-07-06T19:19:05;6.63;;;2.05;;
55545;SDS011;44768;50.298;127.520;2022-07-06T19:24:08;6.57;;;2.10;;
55545;SDS011;44768;50.298;127.520;2022-07-06T19:29:09;9.07;;;1.85;;
55545;SDS011;44768;50.298;127.520;2022-07-06T19:34:11;3.67;;;1.85;;
55545;SDS011;44768;50.298;127.520;2022-07-06T19:39:12;15.60;;;2.72;;
55545;SDS011;44768;50.298;127.520;2022-07-06T19:44:14;4.55;;;1.98;;
55545;SDS011;44768;50.298;127.520;2022-07-06T19:49:16;4.80;;;1.90;;
55545;SDS011;44768;50.298;127.520;2022-07-06T19:54:19;5.78;;;2.15;;
55545;SDS011;44768;50.298;127.520;2022-07-06T19:59:22;11.27;;;1.88;;
55545;SDS011;44768;50.298;127.520;2022-07-06T20:04:23;5.28;;;2.28;;
55545;SDS011;44768;50.298;127.520;2022-07-06T20:09:27;5.45;;;2.10;;
55545;SDS011;44768;50.298;127.520;2022-07-06T20:14:28;13.85;;;2.42;;
55545;SDS011;44768;50.298;127.520;2022-07-06T20:19:30;8.45;;;2.33;;
55545;SDS011;44768;50.298;127.520;2022-07-06T20:24:33;4.90;;;1.85;;
55545;SDS011;44768;50.298;127.520;2022-07-06T20:29:34;9.30;;;2.35;;
55545;SDS011;44768;50.298;127.520;2022-07-06T20:34:36;11.70;;;3.22;;
55545;SDS011;44768;50.298;127.520;2022-07-06T20:39:38;13.05;;;3.30;;
55545;SDS011;44768;50.298;127.520;2022-07-06T20:44:39;7.22;;;2.58;;
55545;SDS011;44768;50.298;127.520;2022-07-06T20:49:41;5.03;;;2.42;;
55545;SDS011;44768;50.298;127.520;2022-07-06T20:54:42;10.98;;;5.25;;
55545;SDS011;44768;50.298;127.520;2022-07-06T20:59:45;9.23;;;6.05;;
55545;SDS011;44768;50.298;127.520;2022-07-06T21:04:47;6.10;;;2.13;;
55545;SDS011;44768;50.298;127.520;2022-07-06T21:09:50;5.80;;;1.38;;
55545;SDS011;44768;50.298;127.520;2022-07-06T21:14:52;6.85;;;1.70;;
55545;SDS011;44768;50.298;127.520;2022-07-06T21:19:54;8.48;;;1.40;;
55545;SDS011;44768;50.298;127.520;2022-07-06T21:24:56;7.57;;;1.70;;
55545;SDS011;44768;50.298;127.520;2022-07-06T21:29:57;9.80;;;1.90;;
55545;SDS011;44768;50.298;127.520;2022-07-06T21:34:59;3.88;;;1.60;;
55545;SDS011;44768;50.298;127.520;2022-07-06T21:40:01;6.75;;;1.45;;
55545;SDS011;44768;50.298;127.520;2022-07-06T21:45:04;7.00;;;1.73;;
55545;SDS011;44768;50.298;127.520;2022-07-06T21:50:06;14.35;;;1.80;;
55545;SDS011;44768;50.298;127.520;2022-07-06T21:55:08;10.63;;;1.48;;
55545;SDS011;44768;50.298;127.520;2022-07-06T22:00:11;11.15;;;1.60;;
55545;SDS011;44768;50.298;127.520;2022-07-06T22:05:14;3.97;;;1.42;;
55545;SDS011;44768;50.298;127.520;2022-07-06T22:10:17;11.57;;;1.58;;
55545;SDS011;44768;50.298;127.520;2022-07-06T22:15:18;17.85;;;1.35;;
55545;SDS011;44768;50.298;127.520;2022-07-06T22:20:21;9.25;;;1.77;;
55545;SDS011;44768;50.298;127.520;2022-07-06T22:25:23;5.63;;;1.42;;
55545;SDS011;44768;50.298;127.520;2022-07-06T22:30:25;14.48;;;1.58;;
55545;SDS011;44768;50.298;127.520;2022-07-06T22:35:27;9.15;;;1.50;;
55545;SDS011;44768;50.298;127.520;2022-07-06T22:40:28;14.90;;;1.85;;
55545;SDS011;44768;50.298;127.520;2022-07-06T22:45:48;11.60;;;2.30;;
55545;SDS011;44768;50.298;127.520;2022-07-06T22:50:49;3.95;;;1.60;;
55545;SDS011;44768;50.298;127.520;2022-07-06T22:55:51;12.65;;;1.75;;
55545;SDS011;44768;50.298;127.520;2022-07-06T23:00:53;12.63;;;2.47;;
55545;SDS011;44768;50.298;127.520;2022-07-06T23:05:55;9.00;;;3.15;;
55545;SDS011;44768;50.298;127.520;2022-07-06T23:10:57;7.38;;;2.17;;
55545;SDS011;44768;50.298;127.520;2022-07-06T23:15:59;5.72;;;2.22;;
55545;SDS011;44768;50.298;127.520;2022-07-06T23:21:01;5.47;;;1.85;;
55545;SDS011;44768;50.298;127.520;2022-07-06T23:26:04;8.77;;;2.95;;
55545;SDS011;44768;50.298;127.520;2022-07-06T23:31:06;9.95;;;2.78;;
55545;SDS011;44768;50.298;127.520;2022-07-06T23:36:08;12.32;;;3.58;;
55545;SDS011;44768;50.298;127.520;2022-07-06T23:41:09;15.30;;;9.57;;
55545;SDS011;44768;50.298;127.520;2022-07-06T23:46:11;20.67;;;18.83;;
55545;SDS011;44768;50.298;127.520;2022-07-06T23:51:12;22.65;;;19.88;;
55545;SDS011;44768;50.298;127.520;2022-07-06T23:56:14;34.10;;;31.23;;
